Forside
METAR-TAF:

METAR-TAF

Lufthavne :

Václav Havel Airport Prague

Prag, Tjekkiet

Breddekreds: 50-06N, længdekreds: 014-15E, højde: 365 m

Aktuelle vejr

Denne rapport blev lavet for 36 minutter siden, kl. 00:30 UTC
Vind 8 kt fra vestsydvest
Temperatur 10°C
Fugtighed 76%
Tryk 1028 hPa
Sigt 10 km eller mere
ingen skyer under 1500m og ingen cumulonimbus

METAR: LKPR 130030Z 25008KT CAVOK 10/06 Q1028 NOSIG

Tid: 03:06 (01:06 UTC)

Vejrudsigter

Denne rapport blev lavet for 2 timer og 6 minutter siden, kl. 23:00 UTC
Foreløbig gælder fra 13 på 00 UTC til 14 på 06 UTC
Vind 8 kt fra vestsydvest
Sigt 10 km eller mere
ingen skyer under 1500m og ingen cumulonimbus
Midlertidig
fra 13 på 10 UTC til 13 på 14 UTC
Sigt 10 km eller mere
Spredte skyer i en højde af 4000 ft

TAF: LKPR 122300Z 1300/1406 24008KT CAVOK TEMPO 1310/1314 9999 SCT040

Vejrobservationer og prognoser fra mere end 4000 lufthavne (METAR og TAF).

De gule og røde prikker repræsenterer de meteorologiske stationer.

Flyt musen over at se navnet på stationen.

Så klik over at se vejr observationer og prognoser.

At skifte det kort: Klik på de grønne knapper med et sort kors for at zoome ind; på den grønne knap med en bindestreg for at zoome ud; eller på de grønne pile for tilstødende kort.


METAR-TAF: